sensor_id;sensor_type;location;lat;lon;timestamp;temperature;humidity
68648;SHT31;55632;51.962;16.116;2022-12-20T00:00:32;2.40;91.99
68648;SHT31;55632;51.962;16.116;2022-12-20T00:05:36;2.34;91.94
68648;SHT31;55632;51.962;16.116;2022-12-20T00:10:37;2.30;91.89
68648;SHT31;55632;51.962;16.116;2022-12-20T00:15:39;2.30;91.93
68648;SHT31;55632;51.962;16.116;2022-12-20T00:20:39;2.28;91.95
68648;SHT31;55632;51.962;16.116;2022-12-20T00:25:40;2.29;91.99
68648;SHT31;55632;51.962;16.116;2022-12-20T00:30:41;2.23;91.94
68648;SHT31;55632;51.962;16.116;2022-12-20T00:35:42;2.22;91.98
68648;SHT31;55632;51.962;16.116;2022-12-20T00:40:43;2.22;92.01
68648;SHT31;55632;51.962;16.116;2022-12-20T00:45:43;2.25;92.11
68648;SHT31;55632;51.962;16.116;2022-12-20T00:50:44;2.25;92.09
68648;SHT31;55632;51.962;16.116;2022-12-20T00:55:45;2.26;92.10
68648;SHT31;55632;51.962;16.116;2022-12-20T01:00:47;2.28;92.14
68648;SHT31;55632;51.962;16.116;2022-12-20T01:05:52;2.30;92.13
68648;SHT31;55632;51.962;16.116;2022-12-20T01:11:16;2.34;92.10
68648;SHT31;55632;51.962;16.116;2022-12-20T01:16:21;2.37;92.06
68648;SHT31;55632;51.962;16.116;2022-12-20T01:21:24;2.39;91.97
68648;SHT31;55632;51.962;16.116;2022-12-20T01:26:27;2.39;91.96
68648;SHT31;55632;51.962;16.116;2022-12-20T01:31:29;2.37;91.98
68648;SHT31;55632;51.962;16.116;2022-12-20T01:36:32;2.40;91.96
68648;SHT31;55632;51.962;16.116;2022-12-20T01:41:35;2.40;91.92
68648;SHT31;55632;51.962;16.116;2022-12-20T01:46:36;2.41;91.92
68648;SHT31;55632;51.962;16.116;2022-12-20T01:51:42;2.40;91.92
68648;SHT31;55632;51.962;16.116;2022-12-20T01:56:48;2.41;91.87
68648;SHT31;55632;51.962;16.116;2022-12-20T02:01:50;2.41;91.84
68648;SHT31;55632;51.962;16.116;2022-12-20T02:06:50;2.41;91.86
68648;SHT31;55632;51.962;16.116;2022-12-20T02:22:32;2.40;91.78
68648;SHT31;55632;51.962;16.116;2022-12-20T02:33:13;2.44;91.74
68648;SHT31;55632;51.962;16.116;2022-12-20T02:38:30;2.43;91.72
68648;SHT31;55632;51.962;16.116;2022-12-20T02:43:33;2.46;91.63
68648;SHT31;55632;51.962;16.116;2022-12-20T02:48:55;2.46;91.50
68648;SHT31;55632;51.962;16.116;2022-12-20T02:53:58;2.47;91.36
68648;SHT31;55632;51.962;16.116;2022-12-20T02:59:10;2.46;91.23
68648;SHT31;55632;51.962;16.116;2022-12-20T03:04:16;2.47;91.10
68648;SHT31;55632;51.962;16.116;2022-12-20T03:09:17;2.46;90.92
68648;SHT31;55632;51.962;16.116;2022-12-20T03:14:18;2.39;90.74
68648;SHT31;55632;51.962;16.116;2022-12-20T03:19:21;2.30;90.53
68648;SHT31;55632;51.962;16.116;2022-12-20T03:24:22;2.28;90.52
68648;SHT31;55632;51.962;16.116;2022-12-20T03:29:25;2.29;90.55
68648;SHT31;55632;51.962;16.116;2022-12-20T03:34:26;2.30;90.51
68648;SHT31;55632;51.962;16.116;2022-12-20T03:39:27;2.33;90.43
68648;SHT31;55632;51.962;16.116;2022-12-20T03:44:29;2.39;90.40
68648;SHT31;55632;51.962;16.116;2022-12-20T03:49:30;2.43;90.31
68648;SHT31;55632;51.962;16.116;2022-12-20T03:54:31;2.47;90.19
68648;SHT31;55632;51.962;16.116;2022-12-20T03:59:43;2.53;90.07
68648;SHT31;55632;51.962;16.116;2022-12-20T04:04:47;2.58;89.93
68648;SHT31;55632;51.962;16.116;2022-12-20T04:09:48;2.62;89.83
68648;SHT31;55632;51.962;16.116;2022-12-20T04:14:51;2.65;89.76
68648;SHT31;55632;51.962;16.116;2022-12-20T04:19:54;2.71;89.61
68648;SHT31;55632;51.962;16.116;2022-12-20T04:24:56;2.75;89.44
68648;SHT31;55632;51.962;16.116;2022-12-20T04:30:00;2.81;89.24
68648;SHT31;55632;51.962;16.116;2022-12-20T04:35:01;2.82;88.98
68648;SHT31;55632;51.962;16.116;2022-12-20T04:40:10;2.88;88.91
68648;SHT31;55632;51.962;16.116;2022-12-20T04:45:21;2.91;88.73
68648;SHT31;55632;51.962;16.116;2022-12-20T04:50:24;2.92;88.64
68648;SHT31;55632;51.962;16.116;2022-12-20T04:55:25;2.95;88.52
68648;SHT31;55632;51.962;16.116;2022-12-20T05:00:27;2.95;88.36
68648;SHT31;55632;51.962;16.116;2022-12-20T05:05:35;2.96;88.27
68648;SHT31;55632;51.962;16.116;2022-12-20T05:10:36;2.92;88.05
68648;SHT31;55632;51.962;16.116;2022-12-20T05:15:37;2.87;87.84
68648;SHT31;55632;51.962;16.116;2022-12-20T05:20:38;2.80;87.73
68648;SHT31;55632;51.962;16.116;2022-12-20T05:25:43;2.75;87.65
68648;SHT31;55632;51.962;16.116;2022-12-20T05:31:03;2.70;87.53
68648;SHT31;55632;51.962;16.116;2022-12-20T05:36:08;2.67;87.51
68648;SHT31;55632;51.962;16.116;2022-12-20T05:41:09;2.61;87.44
68648;SHT31;55632;51.962;16.116;2022-12-20T05:46:11;2.61;87.21
68648;SHT31;55632;51.962;16.116;2022-12-20T05:51:25;2.60;87.19
68648;SHT31;55632;51.962;16.116;2022-12-20T05:56:31;2.60;87.15
68648;SHT31;55632;51.962;16.116;2022-12-20T06:01:32;2.60;87.13
68648;SHT31;55632;51.962;16.116;2022-12-20T06:06:34;2.56;87.05
68648;SHT31;55632;51.962;16.116;2022-12-20T06:11:35;2.51;86.97
68648;SHT31;55632;51.962;16.116;2022-12-20T06:16:40;2.57;86.96
68648;SHT31;55632;51.962;16.116;2022-12-20T06:21:44;2.57;86.87
68648;SHT31;55632;51.962;16.116;2022-12-20T06:26:47;2.56;86.81
68648;SHT31;55632;51.962;16.116;2022-12-20T06:31:48;2.60;86.82
68648;SHT31;55632;51.962;16.116;2022-12-20T06:36:49;2.60;86.69
68648;SHT31;55632;51.962;16.116;2022-12-20T06:41:54;2.57;86.68
68648;SHT31;55632;51.962;16.116;2022-12-20T06:46:57;2.60;86.62
68648;SHT31;55632;51.962;16.116;2022-12-20T06:51:58;2.58;86.57
68648;SHT31;55632;51.962;16.116;2022-12-20T06:57:12;2.57;86.48
68648;SHT31;55632;51.962;16.116;2022-12-20T07:02:15;2.53;86.50
68648;SHT31;55632;51.962;16.116;2022-12-20T07:07:16;2.51;86.49
68648;SHT31;55632;51.962;16.116;2022-12-20T07:12:17;2.51;86.52
68648;SHT31;55632;51.962;16.116;2022-12-20T07:17:17;2.50;86.51
68648;SHT31;55632;51.962;16.116;2022-12-20T07:22:33;2.53;86.47
68648;SHT31;55632;51.962;16.116;2022-12-20T07:27:34;2.53;86.50
68648;SHT31;55632;51.962;16.116;2022-12-20T07:32:35;2.56;86.49
68648;SHT31;55632;51.962;16.116;2022-12-20T07:37:36;2.58;86.51
68648;SHT31;55632;51.962;16.116;2022-12-20T07:42:37;2.61;86.45
68648;SHT31;55632;51.962;16.116;2022-12-20T07:47:39;2.67;86.45
68648;SHT31;55632;51.962;16.116;2022-12-20T07:52:43;2.71;86.49
68648;SHT31;55632;51.962;16.116;2022-12-20T07:57:52;2.80;86.40
68648;SHT31;55632;51.962;16.116;2022-12-20T08:02:59;2.89;86.38
68648;SHT31;55632;51.962;16.116;2022-12-20T08:08:01;2.98;86.34
68648;SHT31;55632;51.962;16.116;2022-12-20T08:13:04;3.06;86.24
68648;SHT31;55632;51.962;16.116;2022-12-20T08:18:05;3.12;86.17
68648;SHT31;55632;51.962;16.116;2022-12-20T08:23:06;3.19;86.10
68648;SHT31;55632;51.962;16.116;2022-12-20T08:28:07;3.28;86.03
68648;SHT31;55632;51.962;16.116;2022-12-20T08:33:07;3.37;85.98
68648;SHT31;55632;51.962;16.116;2022-12-20T08:38:08;3.48;85.93
68648;SHT31;55632;51.962;16.116;2022-12-20T08:43:09;3.60;85.85
68648;SHT31;55632;51.962;16.116;2022-12-20T08:48:10;3.68;85.58
68648;SHT31;55632;51.962;16.116;2022-12-20T08:53:11;3.77;85.40
68648;SHT31;55632;51.962;16.116;2022-12-20T08:58:11;3.83;85.34
68648;SHT31;55632;51.962;16.116;2022-12-20T09:03:12;3.96;85.16
68648;SHT31;55632;51.962;16.116;2022-12-20T09:08:14;4.05;85.06
68648;SHT31;55632;51.962;16.116;2022-12-20T09:13:16;4.18;85.03
68648;SHT31;55632;51.962;16.116;2022-12-20T09:18:17;4.34;84.89
68648;SHT31;55632;51.962;16.116;2022-12-20T09:23:17;4.42;84.49
68648;SHT31;55632;51.962;16.116;2022-12-20T09:28:18;4.51;84.15
68648;SHT31;55632;51.962;16.116;2022-12-20T09:33:19;4.62;83.83
68648;SHT31;55632;51.962;16.116;2022-12-20T09:38:20;4.66;83.82
68648;SHT31;55632;51.962;16.116;2022-12-20T09:43:21;4.73;83.66
68648;SHT31;55632;51.962;16.116;2022-12-20T09:48:41;4.79;83.46
68648;SHT31;55632;51.962;16.116;2022-12-20T09:54:02;4.82;83.45
68648;SHT31;55632;51.962;16.116;2022-12-20T09:59:13;4.85;83.23
68648;SHT31;55632;51.962;16.116;2022-12-20T10:04:26;4.87;83.16
68648;SHT31;55632;51.962;16.116;2022-12-20T10:10:00;4.89;83.04
68648;SHT31;55632;51.962;16.116;2022-12-20T10:15:27;4.92;83.07
68648;SHT31;55632;51.962;16.116;2022-12-20T10:20:43;4.99;83.10
68648;SHT31;55632;51.962;16.116;2022-12-20T10:25:46;5.10;82.91
68648;SHT31;55632;51.962;16.116;2022-12-20T10:30:47;5.16;82.52
68648;SHT31;55632;51.962;16.116;2022-12-20T10:35:48;5.20;82.35
68648;SHT31;55632;51.962;16.116;2022-12-20T10:41:02;5.24;82.20
68648;SHT31;55632;51.962;16.116;2022-12-20T10:46:06;5.26;82.21
68648;SHT31;55632;51.962;16.116;2022-12-20T10:56:18;5.27;81.98
68648;SHT31;55632;51.962;16.116;2022-12-20T11:01:22;5.32;81.98
68648;SHT31;55632;51.962;16.116;2022-12-20T11:06:38;5.34;81.83
68648;SHT31;55632;51.962;16.116;2022-12-20T11:17:24;5.41;81.44
68648;SHT31;55632;51.962;16.116;2022-12-20T11:22:27;5.42;81.26
68648;SHT31;55632;51.962;16.116;2022-12-20T11:27:58;5.45;81.07
68648;SHT31;55632;51.962;16.116;2022-12-20T11:43:53;5.49;80.90
68648;SHT31;55632;51.962;16.116;2022-12-20T11:54:13;5.60;80.64
68648;SHT31;55632;51.962;16.116;2022-12-20T11:59:40;5.65;80.41
68648;SHT31;55632;51.962;16.116;2022-12-20T12:04:48;5.67;80.37
68648;SHT31;55632;51.962;16.116;2022-12-20T12:10:28;5.66;80.14
68648;SHT31;55632;51.962;16.116;2022-12-20T12:15:41;5.69;80.03
68648;SHT31;55632;51.962;16.116;2022-12-20T12:26:03;5.80;80.00
68648;SHT31;55632;51.962;16.116;2022-12-20T12:31:17;5.83;79.84
68648;SHT31;55632;51.962;16.116;2022-12-20T12:42:19;5.85;79.60
68648;SHT31;55632;51.962;16.116;2022-12-20T12:47:28;5.87;79.62
68648;SHT31;55632;51.962;16.116;2022-12-20T12:52:44;5.87;79.64
68648;SHT31;55632;51.962;16.116;2022-12-20T12:57:55;5.90;80.14
68648;SHT31;55632;51.962;16.116;2022-12-20T13:02:57;6.01;80.36
68648;SHT31;55632;51.962;16.116;2022-12-20T13:07:58;6.11;80.18
68648;SHT31;55632;51.962;16.116;2022-12-20T13:13:01;6.15;80.30
68648;SHT31;55632;51.962;16.116;2022-12-20T13:33:39;6.24;79.78
68648;SHT31;55632;51.962;16.116;2022-12-20T13:43:45;6.11;80.16
68648;SHT31;55632;51.962;16.116;2022-12-20T13:53:53;6.10;80.34
68648;SHT31;55632;51.962;16.116;2022-12-20T13:58:55;6.06;80.39
68648;SHT31;55632;51.962;16.116;2022-12-20T14:03:57;5.91;80.32
68648;SHT31;55632;51.962;16.116;2022-12-20T14:08:58;5.79;80.42
68648;SHT31;55632;51.962;16.116;2022-12-20T14:14:03;5.70;80.63
68648;SHT31;55632;51.962;16.116;2022-12-20T14:19:12;5.60;80.73
68648;SHT31;55632;51.962;16.116;2022-12-20T14:24:20;5.55;80.85
68648;SHT31;55632;51.962;16.116;2022-12-20T14:29:28;5.46;80.90
68648;SHT31;55632;51.962;16.116;2022-12-20T14:34:33;5.31;80.97
68648;SHT31;55632;51.962;16.116;2022-12-20T14:39:54;5.21;81.21
68648;SHT31;55632;51.962;16.116;2022-12-20T14:50:21;5.00;81.61
68648;SHT31;55632;51.962;16.116;2022-12-20T14:55:33;4.97;81.85
68648;SHT31;55632;51.962;16.116;2022-12-20T15:00:36;4.92;81.95
68648;SHT31;55632;51.962;16.116;2022-12-20T15:05:49;4.86;82.12
68648;SHT31;55632;51.962;16.116;2022-12-20T15:11:22;4.83;82.20
68648;SHT31;55632;51.962;16.116;2022-12-20T15:16:28;4.79;82.30
68648;SHT31;55632;51.962;16.116;2022-12-20T15:21:30;4.75;82.37
68648;SHT31;55632;51.962;16.116;2022-12-20T15:26:32;4.71;82.40
68648;SHT31;55632;51.962;16.116;2022-12-20T15:31:34;4.68;82.41
68648;SHT31;55632;51.962;16.116;2022-12-20T15:36:35;4.61;82.41
68648;SHT31;55632;51.962;16.116;2022-12-20T15:41:40;4.52;82.48
68648;SHT31;55632;51.962;16.116;2022-12-20T15:46:42;4.40;82.44
68648;SHT31;55632;51.962;16.116;2022-12-20T15:51:44;4.34;82.57
68648;SHT31;55632;51.962;16.116;2022-12-20T15:56:46;4.25;82.83
68648;SHT31;55632;51.962;16.116;2022-12-20T16:01:47;4.23;83.02
68648;SHT31;55632;51.962;16.116;2022-12-20T16:06:49;4.24;83.06
68648;SHT31;55632;51.962;16.116;2022-12-20T16:11:50;4.24;83.11
68648;SHT31;55632;51.962;16.116;2022-12-20T16:16:51;4.23;83.20
68648;SHT31;55632;51.962;16.116;2022-12-20T16:21:53;4.27;83.27
68648;SHT31;55632;51.962;16.116;2022-12-20T16:26:54;4.25;83.34
68648;SHT31;55632;51.962;16.116;2022-12-20T16:31:55;4.29;83.29
68648;SHT31;55632;51.962;16.116;2022-12-20T16:36:56;4.25;83.31
68648;SHT31;55632;51.962;16.116;2022-12-20T16:41:57;4.25;83.32
68648;SHT31;55632;51.962;16.116;2022-12-20T16:46:57;4.27;83.32
68648;SHT31;55632;51.962;16.116;2022-12-20T16:51:58;4.25;83.28
68648;SHT31;55632;51.962;16.116;2022-12-20T16:56:59;4.25;83.27
68648;SHT31;55632;51.962;16.116;2022-12-20T17:02:01;4.30;83.26
68648;SHT31;55632;51.962;16.116;2022-12-20T17:07:01;4.29;83.27
68648;SHT31;55632;51.962;16.116;2022-12-20T17:12:04;4.33;83.16
68648;SHT31;55632;51.962;16.116;2022-12-20T17:17:05;4.34;83.19
68648;SHT31;55632;51.962;16.116;2022-12-20T17:22:09;4.34;83.15
68648;SHT31;55632;51.962;16.116;2022-12-20T17:27:11;4.36;83.11
68648;SHT31;55632;51.962;16.116;2022-12-20T17:32:19;4.36;83.07
68648;SHT31;55632;51.962;16.116;2022-12-20T17:37:20;4.34;82.98
68648;SHT31;55632;51.962;16.116;2022-12-20T17:42:21;4.30;82.95
68648;SHT31;55632;51.962;16.116;2022-12-20T17:47:22;4.29;82.94
68648;SHT31;55632;51.962;16.116;2022-12-20T17:52:23;4.24;82.95
68648;SHT31;55632;51.962;16.116;2022-12-20T17:57:25;4.21;82.95
68648;SHT31;55632;51.962;16.116;2022-12-20T18:02:25;4.18;82.91
68648;SHT31;55632;51.962;16.116;2022-12-20T18:07:26;4.11;82.95
68648;SHT31;55632;51.962;16.116;2022-12-20T18:12:27;4.06;83.00
68648;SHT31;55632;51.962;16.116;2022-12-20T18:17:28;4.05;83.06
68648;SHT31;55632;51.962;16.116;2022-12-20T18:22:29;4.02;83.10
68648;SHT31;55632;51.962;16.116;2022-12-20T18:27:34;3.99;83.12
68648;SHT31;55632;51.962;16.116;2022-12-20T18:32:35;4.03;83.09
68648;SHT31;55632;51.962;16.116;2022-12-20T18:37:36;4.02;83.07
68648;SHT31;55632;51.962;16.116;2022-12-20T18:42:36;4.06;83.05
68648;SHT31;55632;51.962;16.116;2022-12-20T18:47:37;4.02;83.00
68648;SHT31;55632;51.962;16.116;2022-12-20T18:52:38;4.02;82.97
68648;SHT31;55632;51.962;16.116;2022-12-20T18:57:40;4.03;82.97
68648;SHT31;55632;51.962;16.116;2022-12-20T19:02:41;4.00;82.90
68648;SHT31;55632;51.962;16.116;2022-12-20T19:07:43;3.97;82.91
68648;SHT31;55632;51.962;16.116;2022-12-20T19:12:43;3.96;82.89
68648;SHT31;55632;51.962;16.116;2022-12-20T19:17:47;3.96;82.91
68648;SHT31;55632;51.962;16.116;2022-12-20T19:22:50;3.92;82.91
68648;SHT31;55632;51.962;16.116;2022-12-20T19:27:52;3.93;82.94
68648;SHT31;55632;51.962;16.116;2022-12-20T19:32:53;3.90;82.92
68648;SHT31;55632;51.962;16.116;2022-12-20T19:37:54;3.93;82.98
68648;SHT31;55632;51.962;16.116;2022-12-20T19:42:55;3.90;82.94
68648;SHT31;55632;51.962;16.116;2022-12-20T19:47:56;3.92;82.95
68648;SHT31;55632;51.962;16.116;2022-12-20T19:52:56;3.95;82.90
68648;SHT31;55632;51.962;16.116;2022-12-20T19:57:57;3.95;82.83
68648;SHT31;55632;51.962;16.116;2022-12-20T20:02:58;3.96;82.78
68648;SHT31;55632;51.962;16.116;2022-12-20T20:08:16;3.97;82.79
68648;SHT31;55632;51.962;16.116;2022-12-20T20:13:17;3.95;82.72
68648;SHT31;55632;51.962;16.116;2022-12-20T20:18:18;3.99;82.68
68648;SHT31;55632;51.962;16.116;2022-12-20T20:23:18;3.99;82.66
68648;SHT31;55632;51.962;16.116;2022-12-20T20:28:19;3.99;82.69
68648;SHT31;55632;51.962;16.116;2022-12-20T20:33:20;3.95;82.66
68648;SHT31;55632;51.962;16.116;2022-12-20T20:38:21;3.93;82.68
68648;SHT31;55632;51.962;16.116;2022-12-20T20:43:23;3.90;82.81
68648;SHT31;55632;51.962;16.116;2022-12-20T20:48:24;3.86;82.86
68648;SHT31;55632;51.962;16.116;2022-12-20T20:53:25;3.83;82.90
68648;SHT31;55632;51.962;16.116;2022-12-20T20:58:26;3.83;82.97
68648;SHT31;55632;51.962;16.116;2022-12-20T21:03:29;3.81;83.04
68648;SHT31;55632;51.962;16.116;2022-12-20T21:08:30;3.81;83.11
68648;SHT31;55632;51.962;16.116;2022-12-20T21:13:32;3.82;83.09
68648;SHT31;55632;51.962;16.116;2022-12-20T21:18:34;3.78;83.12
68648;SHT31;55632;51.962;16.116;2022-12-20T21:23:34;3.78;83.14
68648;SHT31;55632;51.962;16.116;2022-12-20T21:28:35;3.74;83.16
68648;SHT31;55632;51.962;16.116;2022-12-20T21:33:36;3.74;83.28
68648;SHT31;55632;51.962;16.116;2022-12-20T21:38:37;3.72;83.29
68648;SHT31;55632;51.962;16.116;2022-12-20T21:43:38;3.72;83.34
68648;SHT31;55632;51.962;16.116;2022-12-20T21:48:40;3.72;83.34
68648;SHT31;55632;51.962;16.116;2022-12-20T21:53:47;3.71;83.39
68648;SHT31;55632;51.962;16.116;2022-12-20T21:58:48;3.71;83.40
68648;SHT31;55632;51.962;16.116;2022-12-20T22:03:52;3.72;83.43
68648;SHT31;55632;51.962;16.116;2022-12-20T22:08:57;3.72;83.46
68648;SHT31;55632;51.962;16.116;2022-12-20T22:13:58;3.74;83.48
68648;SHT31;55632;51.962;16.116;2022-12-20T22:19:00;3.74;83.45
68648;SHT31;55632;51.962;16.116;2022-12-20T22:24:01;3.71;83.38
68648;SHT31;55632;51.962;16.116;2022-12-20T22:29:04;3.69;83.43
68648;SHT31;55632;51.962;16.116;2022-12-20T22:34:05;3.62;83.32
68648;SHT31;55632;51.962;16.116;2022-12-20T22:39:08;3.51;83.19
68648;SHT31;55632;51.962;16.116;2022-12-20T22:44:09;3.43;83.26
68648;SHT31;55632;51.962;16.116;2022-12-20T22:49:14;3.28;83.03
68648;SHT31;55632;51.962;16.116;2022-12-20T22:54:15;3.17;83.27
68648;SHT31;55632;51.962;16.116;2022-12-20T22:59:16;3.06;83.23
68648;SHT31;55632;51.962;16.116;2022-12-20T23:04:16;2.99;83.43
68648;SHT31;55632;51.962;16.116;2022-12-20T23:09:17;2.93;83.55
68648;SHT31;55632;51.962;16.116;2022-12-20T23:14:20;2.88;83.68
68648;SHT31;55632;51.962;16.116;2022-12-20T23:19:40;2.87;83.88
68648;SHT31;55632;51.962;16.116;2022-12-20T23:25:04;2.82;84.06
68648;SHT31;55632;51.962;16.116;2022-12-20T23:30:07;2.85;84.07
68648;SHT31;55632;51.962;16.116;2022-12-20T23:35:17;2.84;84.13
68648;SHT31;55632;51.962;16.116;2022-12-20T23:40:18;2.85;84.26
68648;SHT31;55632;51.962;16.116;2022-12-20T23:45:18;2.88;84.49
68648;SHT31;55632;51.962;16.116;2022-12-20T23:50:19;2.92;84.50
68648;SHT31;55632;51.962;16.116;2022-12-20T23:55:20;2.91;84.57
